Flight Track Log - Related Links

Times and Time Zones

All times are in EDT time to prevent confusion due to time zone crossing. See the SWA16 flight status page for this flight to view local times or setup timezone preferences in your user account.

Time Position Orientation Groundspeed Altitude Reporting Facility
EDT Latitude Longitude Course Direction KTS MPH feet Rate Location/Type
Fri 06:32:01 AM 40.7500 -74.1833 270° West 246 283 3,300  Level New York TRACON
Fri 06:33:01 AM 40.7500 -74.2833 270° West 282 325 5,900 2,790 Climbing New York TRACON
Fri 06:34:38 AM 40.7419 -74.4439 266° West 317 365 10,600 2,752 Climbing New York Center
Fri 06:35:38 AM 40.7067 -74.5761 251° West 337 388 13,100 2,975 Climbing New York Center
Fri 06:36:39 AM 40.6669 -74.7025 248° West 365 420 16,600 3,100 Climbing New York Center
Fri 06:37:38 AM 40.6250 -74.8314 247° West 387 445 19,300 2,571 Climbing New York Center
Fri 06:38:38 AM 40.5808 -74.9656 247° West 398 458 21,700 2,331 Climbing New York Center
Fri 06:39:39 AM 40.5200 -75.0928 238° Southwest 403 464 24,000 2,300 Climbing New York Center
Fri 06:40:38 AM 40.4467 -75.2164 232° Southwest 418 481 26,300 2,118 Climbing New York Center
Fri 06:41:38 AM 40.3711 -75.3394 231° Southwest 435 501 28,200 1,736 Climbing New York Center
Fri 06:42:39 AM 40.2931 -75.4650 231° Southwest 440 506 29,800 1,636 Climbing New York Center
Fri 06:43:39 AM 40.2128 -75.5956 231° Southwest 455 524 31,500 2,067 Climbing New York Center
Fri 06:44:38 AM 40.1347 -75.7203 231° Southwest 460 529 33,900 2,050 Climbing New York Center
Fri 06:45:39 AM 40.0608 -75.8400 231° Southwest 450 518 35,600 1,400 Climbing New York Center
Fri 06:46:38 AM 39.9914 -75.9514 231° Southwest 450 518 36,700 1,100 Climbing New York Center
Fri 06:47:39 AM 39.9150 -76.0731 231° Southwest 450 518 37,800 1,190 Climbing New York Center
Fri 06:48:39 AM 39.8364 -76.1969 230° Southwest 450 518 39,100 1,100 Climbing New York Center
Fri 06:49:39 AM 39.7558 -76.3175 229° Southwest 450 518 40,000 383 Climbing New York Center
Fri 06:51:00 AM 39.6500 -76.4889 231° Southwest 429 494 40,000  Level Washington Center
Fri 06:52:00 AM 39.5783 -76.5958 229° Southwest 429 494 40,000  Level Washington Center
Fri 06:52:58 AM 39.5000 -76.7131 229° Southwest 429 494 40,000  Level Washington Center
Fri 06:53:59 AM 39.4239 -76.8328 231° Southwest 429 494 40,000  Level Washington Center
Fri 06:55:00 AM 39.3497 -76.9522 231° Southwest 429 494 40,000  Level Washington Center
Fri 06:55:59 AM 39.2733 -77.0689 230° Southwest 429 494 40,000  Level Washington Center
Fri 06:57:00 AM 39.1925 -77.1903 229° Southwest 429 494 40,000  Level Washington Center
Fri 06:58:00 AM 39.1158 -77.3064 230° Southwest 429 494 40,000  Level Washington Center
Fri 06:59:00 AM 39.0392 -77.4275 231° Southwest 434 499 40,000  Level Washington Center
Fri 06:59:58 AM 38.9581 -77.5456 229° Southwest 434 499 40,000  Level Washington Center
Fri 07:01:00 AM 38.8725 -77.6767 230° Southwest 442 509 40,000  Level Washington Center
Fri 07:02:01 AM 38.7931 -77.7944 229° Southwest 442 509 40,000  Level Washington Center
Fri 07:02:59 AM 38.7139 -77.9117 229° Southwest 447 514 40,000  Level Washington Center
Fri 07:04:01 AM 38.6386 -78.0264 230° Southwest 440 506 40,000  Level Washington Center
Fri 07:04:59 AM 38.5611 -78.1406 229° Southwest 435 501 40,000  Level Washington Center
Fri 07:05:59 AM 38.4922 -78.2442 230° Southwest 441 507 40,000  Level Washington Center
Fri 07:06:59 AM 38.4144 -78.3608 230° Southwest 441 507 40,000  Level Washington Center
Fri 07:08:00 AM 38.3347 -78.4742 228° Southwest 441 507 40,000  Level Washington Center
Fri 07:09:00 AM 38.2544 -78.6033 232° Southwest 432 497 40,000  Level Washington Center
Fri 07:10:01 AM 38.1764 -78.7192 229° Southwest 432 497 40,000  Level Washington Center
Fri 07:11:01 AM 38.0961 -78.8344 229° Southwest 437 503 40,000  Level Washington Center
Fri 07:11:58 AM 38.0158 -78.9497 229° Southwest 442 509 40,000  Level Washington Center
Fri 07:12:59 AM 37.9397 -79.0569 228° Southwest 448 516 40,000  Level Washington Center
Fri 07:14:00 AM 37.8694 -79.1800 234° Southwest 448 516 40,000  Level Washington Center
Fri 07:15:00 AM 37.8028 -79.3108 237° Southwest 448 516 40,000  Level Washington Center
Fri 07:15:59 AM 37.7314 -79.4569 238° Southwest 448 516 40,000  Level Washington Center
Fri 07:16:59 AM 37.6625 -79.5872 236° Southwest 448 516 40,000  Level Washington Center
Fri 07:18:00 AM 37.6044 -79.7022 238° Southwest 443 510 40,000  Level Washington Center
Fri 07:19:01 AM 37.5394 -79.8322 238° Southwest 443 510 40,000  Level Washington Center
Fri 07:20:00 AM 37.4717 -79.9697 238° Southwest 456 525 40,000  Level Washington Center
Fri 07:21:53 AM 37.3414 -80.2147 236° Southwest 453 521 40,000  Level Atlanta Center
Fri 07:22:53 AM 37.2747 -80.3483 238° Southwest 448 516 40,000  Level Atlanta Center
Fri 07:23:53 AM 37.2097 -80.4739 237° Southwest 448 516 40,000  Level Atlanta Center
Fri 07:24:53 AM 37.1367 -80.6153 237° Southwest 443 510 40,000  Level Atlanta Center
Fri 07:25:53 AM 37.0736 -80.7481 239° Southwest 443 510 40,000  Level Atlanta Center
Fri 07:26:53 AM 37.0186 -80.8831 243° Southwest 443 510 40,000  Level Atlanta Center
Fri 07:27:53 AM 36.9550 -81.0075 237° Southwest 438 504 40,000  Level Atlanta Center
Fri 07:28:53 AM 36.8933 -81.1214 236° Southwest 438 504 40,000  Level Atlanta Center
Fri 07:29:53 AM 36.8294 -81.2508 238° Southwest 438 504 40,000  Level Atlanta Center
Fri 07:30:53 AM 36.7675 -81.3750 238° Southwest 438 504 40,000  Level Atlanta Center
Fri 07:31:53 AM 36.7036 -81.5014 238° Southwest 430 495 40,000  Level Atlanta Center
Fri 07:32:53 AM 36.6292 -81.6433 237° Southwest 441 507 40,000  Level Atlanta Center
Fri 07:33:53 AM 36.5628 -81.7719 237° Southwest 446 513 40,000  Level Atlanta Center
Fri 07:34:53 AM 36.4964 -81.8978 237° Southwest 446 513 40,000  Level Atlanta Center
Fri 07:35:53 AM 36.4297 -82.0233 237° Southwest 446 513 40,000  Level Atlanta Center
Fri 07:36:53 AM 36.3689 -82.1358 236° Southwest 446 513 40,000  Level Atlanta Center
Fri 07:37:53 AM 36.3000 -82.2636 236° Southwest 446 513 40,000  Level Atlanta Center
Fri 07:38:53 AM 36.2328 -82.3939 237° Southwest 446 513 40,000  Level Atlanta Center
Fri 07:39:53 AM 36.1636 -82.5189 236° Southwest 446 513 40,000  Level Atlanta Center
Fri 07:40:53 AM 36.0961 -82.6458 237° Southwest 446 513 40,000  Level Atlanta Center
Fri 07:41:53 AM 36.0308 -82.7703 237° Southwest 446 513 40,000  Level Atlanta Center
Fri 07:42:53 AM 35.9611 -82.8997 236° Southwest 446 513 40,000  Level Atlanta Center
Fri 07:43:53 AM 35.8933 -83.0236 236° Southwest 446 513 40,000  Level Atlanta Center
Fri 07:44:53 AM 35.8256 -83.1500 237° Southwest 446 513 40,000  Level Atlanta Center
Fri 07:45:53 AM 35.7575 -83.2736 236° Southwest 441 507 40,000  Level Atlanta Center
Fri 07:46:53 AM 35.6894 -83.3969 236° Southwest 441 507 40,000  Level Atlanta Center
Fri 07:47:53 AM 35.6211 -83.5203 236° Southwest 447 514 40,000  Level Atlanta Center
Fri 07:48:53 AM 35.5528 -83.6481 237° Southwest 447 514 40,000  Level Atlanta Center
Fri 07:49:53 AM 35.4844 -83.7708 236° Southwest 447 514 40,000  Level Atlanta Center
Fri 07:50:53 AM 35.4156 -83.8986 237° Southwest 447 514 40,000  Level Atlanta Center
Fri 07:51:53 AM 35.3447 -84.0183 234° Southwest 447 514 40,000  Level Atlanta Center
Fri 07:52:53 AM 35.2781 -84.1431 237° Southwest 447 514 40,000  Level Atlanta Center
Fri 07:53:53 AM 35.2069 -84.2675 235° Southwest 447 514 40,000  Level Atlanta Center
Fri 07:54:53 AM 35.1336 -84.3969 235° Southwest 447 514 40,000  Level Atlanta Center
Fri 07:55:53 AM 35.0642 -84.5208 236° Southwest 437 503 40,000  Level Atlanta Center
Fri 07:56:53 AM 34.9969 -84.6397 235° Southwest 442 509 40,000  Level Atlanta Center
Fri 07:57:53 AM 34.9275 -84.7583 234° Southwest 442 509 40,000  Level Atlanta Center
Fri 07:58:53 AM 34.8600 -84.8792 236° Southwest 447 514 40,000  Level Atlanta Center
Fri 07:59:53 AM 34.7922 -84.9975 235° Southwest 442 509 40,000  Level Atlanta Center
Fri 08:00:53 AM 34.7247 -85.1128 235° Southwest 442 509 40,000  Level Atlanta Center
Fri 08:01:53 AM 34.6589 -85.2308 236° Southwest 437 503 40,000  Level Atlanta Center
Fri 08:02:53 AM 34.5886 -85.3508 235° Southwest 437 503 40,000  Level Atlanta Center
Fri 08:03:53 AM 34.5206 -85.4658 234° Southwest 437 503 40,000  Level Atlanta Center
Fri 08:04:53 AM 34.4503 -85.5856 235° Southwest 437 503 40,000  Level Atlanta Center
Fri 08:05:53 AM 34.3969 -85.6800 236° Southwest 437 503 40,000  Level Atlanta Center
Fri 08:06:53 AM 34.3306 -85.8022 237° Southwest 437 503 40,000  Level Atlanta Center
Fri 08:07:53 AM 34.2514 -85.9261 232° Southwest 437 503 40,000  Level Atlanta Center
Fri 08:08:53 AM 34.1808 -86.0425 234° Southwest 437 503 40,000  Level Atlanta Center
Fri 08:09:53 AM 34.1119 -86.1589 234° Southwest 437 503 40,000  Level Atlanta Center
Fri 08:10:53 AM 34.0411 -86.2750 234° Southwest 437 503 40,000  Level Atlanta Center
Fri 08:11:53 AM 33.9742 -86.3908 235° Southwest 437 503 40,000  Level Atlanta Center
Fri 08:12:53 AM 33.9053 -86.5042 234° Southwest 432 497 40,000  Level Atlanta Center
Fri 08:13:53 AM 33.8383 -86.6172 235° Southwest 432 497 40,000  Level Atlanta Center
Fri 08:14:53 AM 33.7692 -86.7300 234° Southwest 426 490 40,000  Level Atlanta Center
Fri 08:15:53 AM 33.7019 -86.8428 234° Southwest 426 490 40,000  Level Atlanta Center
Fri 08:16:53 AM 33.6447 -86.9608 240° Southwest 419 482 40,000  Level Atlanta Center
Fri 08:17:53 AM 33.5894 -87.0911 243° Southwest 408 470 40,000  Level Atlanta Center
Fri 08:18:53 AM 33.5406 -87.2139 244° Southwest 408 470 40,000  Level Atlanta Center
Fri 08:21:05 AM 33.4319 -87.4872 245° Southwest 408 470 40,000  Level Memphis Center
Fri 08:22:05 AM 33.3825 -87.6058 243° Southwest 408 470 40,000  Level Memphis Center
Fri 08:23:05 AM 33.3350 -87.7292 245° Southwest 408 470 40,000  Level Memphis Center
Fri 08:24:05 AM 33.2853 -87.8497 244° Southwest 408 470 40,000  Level Memphis Center
Fri 08:25:05 AM 33.2375 -87.9703 245° Southwest 408 470 40,000  Level Memphis Center
Fri 08:26:05 AM 33.1878 -88.0883 243° Southwest 402 463 40,000  Level Memphis Center
Fri 08:27:05 AM 33.1375 -88.2089 244° Southwest 402 463 40,000  Level Memphis Center
Fri 08:28:05 AM 33.0894 -88.3314 245° Southwest 402 463 40,000  Level Memphis Center
Fri 08:29:05 AM 33.0414 -88.4467 244° Southwest 402 463 40,000  Level Memphis Center
Fri 08:30:05 AM 32.9931 -88.5689 245° Southwest 402 463 40,000  Level Memphis Center
Fri 08:31:05 AM 32.9403 -88.6889 242° Southwest 402 463 40,000  Level Memphis Center
Fri 08:32:05 AM 32.8919 -88.8061 244° Southwest 402 463 40,000  Level Memphis Center
Fri 08:33:05 AM 32.8411 -88.9231 243° Southwest 402 463 40,000  Level Memphis Center
Fri 08:34:05 AM 32.7942 -89.0375 244° Southwest 402 463 40,000  Level Memphis Center
Fri 08:35:05 AM 32.7433 -89.1569 243° Southwest 402 463 40,000  Level Memphis Center
Fri 08:36:05 AM 32.6942 -89.2711 243° Southwest 402 463 40,000  Level Memphis Center
Fri 08:37:05 AM 32.6431 -89.3878 243° Southwest 397 457 40,000  Level Memphis Center
Fri 08:38:05 AM 32.5939 -89.5042 243° Southwest 397 457 40,000  Level Memphis Center
Fri 08:39:05 AM 32.5444 -89.6181 243° Southwest 397 457 40,000  Level Memphis Center
Fri 08:40:05 AM 32.4950 -89.7367 244° Southwest 397 457 40,000  Level Memphis Center
Fri 08:41:05 AM 32.4433 -89.8528 242° Southwest 397 457 40,000  Level Memphis Center
Fri 08:42:05 AM 32.3936 -89.9661 243° Southwest 397 457 40,000  Level Memphis Center
Fri 08:43:05 AM 32.3439 -90.0844 244° Southwest 392 451 40,000  Level Memphis Center
Fri 08:44:05 AM 32.2939 -90.1975 242° Southwest 392 451 40,000  Level Memphis Center
Fri 08:45:05 AM 32.2439 -90.3131 243° Southwest 392 451 40,000  Level Memphis Center
Fri 08:46:05 AM 32.1917 -90.4286 242° Southwest 387 445 40,000  Level Memphis Center
Fri 08:47:05 AM 32.1417 -90.5414 242° Southwest 387 445 40,000  Level Memphis Center
Fri 08:47:44 AM 32.1175 -90.6039 245° Southwest 394 453 40,000  Level Houston Center
Fri 08:48:46 AM 32.0664 -90.7161 242° Southwest 392 451 40,000  Level Houston Center
Fri 08:49:48 AM 32.0114 -90.8433 243° Southwest 390 449 40,000  Level Houston Center
Fri 08:50:49 AM 31.9600 -90.9558 242° Southwest 391 450 40,000  Level Houston Center
Fri 08:51:51 AM 31.9103 -91.0697 243° Southwest 391 450 40,000  Level Houston Center
Fri 08:52:53 AM 31.8583 -91.1825 242° Southwest 392 451 40,000  Level Houston Center
Fri 08:53:54 AM 31.8072 -91.2958 242° Southwest 392 451 40,000  Level Houston Center
Fri 08:54:56 AM 31.7558 -91.4089 242° Southwest 394 453 40,000  Level Houston Center
Fri 08:55:58 AM 31.6956 -91.5450 243° Southwest 393 452 40,000  Level Houston Center
Fri 08:56:59 AM 31.6442 -91.6575 242° Southwest 391 450 40,000  Level Houston Center
Fri 08:58:01 AM 31.5925 -91.7708 242° Southwest 394 453 40,000  Level Houston Center
Fri 08:59:03 AM 31.5411 -91.8831 242° Southwest 392 451 40,000  Level Houston Center
Fri 09:00:04 AM 31.4894 -91.9953 242° Southwest 392 451 40,000  Level Houston Center
Fri 09:01:06 AM 31.4300 -92.1239 242° Southwest 390 449 40,000  Level Houston Center
Fri 09:02:08 AM 31.3794 -92.2353 242° Southwest 388 447 40,000  Level Houston Center
Fri 09:03:09 AM 31.3278 -92.3450 241° Southwest 386 444 40,000  Level Houston Center
Fri 09:04:11 AM 31.2775 -92.4553 242° Southwest 386 444 40,000  Level Houston Center
Fri 09:05:13 AM 31.2317 -92.5667 244° Southwest 383 441 40,000  Level Houston Center
Fri 09:06:14 AM 31.1903 -92.6814 247° West 383 441 40,000  Level Houston Center
Fri 09:07:16 AM 31.1489 -92.7936 247° West 379 436 40,000  Level Houston Center
Fri 09:08:18 AM 31.0986 -92.9283 246° West 379 436 40,000  Level Houston Center
Fri 09:09:19 AM 31.0569 -93.0422 247° West 384 442 40,000  Level Houston Center
Fri 09:10:21 AM 31.0153 -93.1561 247° West 383 441 40,000  Level Houston Center
Fri 09:11:23 AM 30.9714 -93.2692 246° West 386 444 40,000  Level Houston Center
Fri 09:12:24 AM 30.9300 -93.3819 247° West 382 440 40,000  Level Houston Center
Fri 09:13:26 AM 30.8872 -93.4956 246° West 384 442 40,000 -1,113 Level Houston Center
Fri 09:14:28 AM 30.8375 -93.6294 247° West 381 438 37,700 -2,419 Descending Houston Center
Fri 09:15:30 AM 30.7950 -93.7400 246° West 379 436 35,000 -2,390 Descending Houston Center
Fri 09:16:31 AM 30.7528 -93.8522 246° West 381 438 32,800 -2,146 Descending Houston Center
Fri 09:17:33 AM 30.7108 -93.9619 246° West 377 434 30,600 -2,081 Descending Houston Center
Fri 09:18:35 AM 30.6694 -94.0686 246° West 367 422 28,500 -2,032 Descending Houston Center
Fri 09:19:37 AM 30.6294 -94.1733 246° West 359 413 26,400 -2,200 Descending Houston Center
Fri 09:20:05 AM 30.6058 -94.2356 246° West 352 405 25,200 -2,361 Descending Houston Center
Fri 09:20:38 AM 30.5825 -94.2956 246° West 348 400 24,000 -2,051 Descending Houston Center
Fri 09:21:24 AM 30.5522 -94.3739 246° West 342 394 22,500 -1,935 Descending Houston Center
Fri 09:21:40 AM 30.5442 -94.3947 246° West 342 394 22,000 -1,964 Descending Houston Center
Fri 09:22:19 AM 30.5169 -94.4633 245° Southwest 341 392 20,700 -2,032 Descending Houston Center
Fri 09:22:42 AM 30.5031 -94.5000 246° West 339 390 19,900 -1,967 Descending Houston Center
Fri 09:23:20 AM 30.4694 -94.5569 236° Southwest 334 384 18,700 -1,839 Descending Houston Center
Fri 09:23:44 AM 30.4500 -94.5883 234° Southwest 334 384 18,000 -1,967 Descending Houston Center
Fri 09:24:21 AM 30.4144 -94.6417 232° Southwest 329 379 16,700 -1,967 Descending Houston Center
Fri 09:24:45 AM 30.3939 -94.6758 235° Southwest 329 379 16,000 -2,000 Descending Houston Center
Fri 09:25:21 AM 30.3581 -94.7311 233° Southwest 330 380 14,700 -1,935 Descending Houston Center
Fri 09:25:47 AM 30.3392 -94.7611 234° Southwest 330 380 14,000 -1,612 Descending Houston Center
Fri 09:26:28 AM 30.2975 -94.8236 232° Southwest 325 374 12,900 -1,258 Descending Houston Center
Fri 09:26:49 AM 30.2850 -94.8431 233° Southwest 323 372 12,700 -828 Descending Houston Center
Fri 09:27:26 AM 30.2461 -94.9028 233° Southwest 333 383 12,100 -871 Descending Houston Center
Fri 09:27:51 AM 30.2292 -94.9294 234° Southwest 334 384 11,800 -1,034 Descending Houston Center
Fri 09:28:24 AM 30.1914 -94.9894 234° Southwest 336 387 11,100 -968 Descending Houston Center
Fri 09:28:53 AM 30.1742 -95.0153 232° Southwest 333 383 10,800 -984 Descending Houston Center
Fri 09:29:25 AM 30.1297 -95.0719 228° Southwest 324 373 10,100 -774 Descending Houston Center
Fri 09:29:55 AM 30.1081 -95.0817 201° Southwest 331 381 10,000 -109 Descending Houston Center
Fri 09:30:20 AM 30.0553 -95.1053 201° Southwest 322 371 10,000 -98 Level Houston Center
Fri 09:30:56 AM 30.0092 -95.1258 201° Southwest 321 369 9,900 -806 Descending Houston Center
Fri 09:31:27 AM 29.9683 -95.1425 199° South 287 330 9,100 -1,452 Descending Houston Center
Fri 09:31:58 AM 29.9339 -95.1581 201° Southwest 300 345 8,400 -1,309 Descending Houston Center
Fri 09:32:22 AM 29.8997 -95.1728 200° South 284 327 7,900 -1,258 Descending Houston Center
Fri 09:33:00 AM 29.8622 -95.1886 200° South 281 323 7,100 -1,200 Descending Houston Center
Fri 09:33:22 AM 29.8311 -95.2028 202° Southwest 262 302 6,700 -1,065 Descending Houston Center
Fri 09:34:02 AM 29.8142 -95.2375 241° Southwest 252 290 6,000 -1,258 Descending Houston Center
Fri 09:34:24 AM 29.7992 -95.2669 240° Southwest 219 252 5,400 -1,452 Descending Houston Center
Fri 09:35:04 AM 29.7925 -95.3000 257° West 220 253 4,500 -2,066 Descending Houston Center
Fri 09:35:25 AM 29.7817 -95.3267 245° Southwest 173 199 3,300 -2,226 Descending Houston Center
Fri 09:36:06 AM 29.7522 -95.3417 204° Southwest 185 213 2,200 -1,279 Descending Houston Center
Fri 09:36:26 AM 29.7350 -95.3444 188° South 169 194 2,000 -774 Descending Houston Center
Fri 09:37:08 AM 29.7092 -95.3433 178° South 171 197 1,400 -689 Descending Houston Center
Fri 09:37:27 AM 29.6964 -95.3369 157° South 135 155 1,300 -492 Descending Houston Center
Fri 09:38:09 AM 29.6797 -95.3208 140° Southeast 143 165 900 -590 Descending Houston Center
Fri 09:38:28 AM 29.6711 -95.3111 136° Southeast 117 135 700 -677 Descending Houston Center
Fri 09:39:11 AM 29.6569 -95.2936 133° Southeast 127 146 200 -698 Descending Houston Center

Login

Don't have an account? Register now (free) for customized features, flight alerts, and more!